createdAt,value
2022-12-09T00:01:06.867Z,5.15
2022-12-09T00:03:42.015Z,5.16
2022-12-09T00:06:17.458Z,5.18
2022-12-09T00:08:52.815Z,5.07
2022-12-09T00:11:26.303Z,5.14
2022-12-09T00:14:00.318Z,5.05
2022-12-09T00:16:33.602Z,5.14
2022-12-09T00:19:08.802Z,5.14
2022-12-09T00:21:42.537Z,5.18
2022-12-09T00:24:15.357Z,5.17
2022-12-09T00:26:48.308Z,5.17
2022-12-09T00:29:21.086Z,5.17
2022-12-09T00:31:54.084Z,5.10
2022-12-09T00:34:28.203Z,5.13
2022-12-09T00:37:00.888Z,5.12
2022-12-09T00:39:33.690Z,5.08
2022-12-09T00:42:06.353Z,5.14
2022-12-09T00:44:39.890Z,5.10
2022-12-09T00:47:12.667Z,5.11
2022-12-09T00:49:46.895Z,5.03
2022-12-09T00:52:19.662Z,5.08
2022-12-09T00:54:52.500Z,5.08
2022-12-09T00:57:25.297Z,5.11
2022-12-09T00:59:58.290Z,5.08
2022-12-09T01:02:31.268Z,5.04
2022-12-09T01:05:06.296Z,5.05
2022-12-09T01:07:39.258Z,5.07
2022-12-09T01:10:12.440Z,5.04
2022-12-09T01:12:45.574Z,5.07
2022-12-09T01:15:18.843Z,5.08
2022-12-09T01:17:51.540Z,5.13
2022-12-09T01:20:26.283Z,5.09
2022-12-09T01:22:59.086Z,5.09
2022-12-09T01:25:32.372Z,5.06
2022-12-09T01:28:05.132Z,5.09
2022-12-09T01:30:38.026Z,5.08
2022-12-09T01:33:13.305Z,5.09
2022-12-09T01:35:47.533Z,5.06
2022-12-09T01:38:21.601Z,5.12
2022-12-09T01:40:54.673Z,5.08
2022-12-09T01:43:27.545Z,5.08
2022-12-09T01:46:00.421Z,5.08
2022-12-09T01:48:33.768Z,5.10
2022-12-09T01:51:10.159Z,5.14
2022-12-09T01:53:45.246Z,5.10
2022-12-09T01:56:22.391Z,5.07
2022-12-09T01:58:55.502Z,5.07
2022-12-09T02:01:29.058Z,5.04
2022-12-09T02:04:02.194Z,5.11
2022-12-09T02:06:38.561Z,5.08
2022-12-09T02:09:13.836Z,5.03
2022-12-09T02:11:59.071Z,5.05
2022-12-09T02:14:36.793Z,5.03
2022-12-09T02:17:21.354Z,5.04
2022-12-09T02:20:01.490Z,5.09
2022-12-09T02:22:39.657Z,5.06
2022-12-09T02:25:19.239Z,5.11
2022-12-09T02:27:59.188Z,5.08
2022-12-09T02:30:33.441Z,5.08
2022-12-09T02:33:24.712Z,5.06
2022-12-09T02:36:04.113Z,5.09
2022-12-09T02:38:39.084Z,5.06
2022-12-09T02:41:17.326Z,5.11
2022-12-09T02:43:55.384Z,5.16
2022-12-09T02:46:35.720Z,5.12
2022-12-09T02:49:13.531Z,5.09
2022-12-09T02:51:50.535Z,5.09
2022-12-09T02:54:24.587Z,5.10
2022-12-09T02:57:01.536Z,5.11
2022-12-09T02:59:35.627Z,5.11
2022-12-09T03:02:15.269Z,5.09
2022-12-09T03:04:52.961Z,5.08
2022-12-09T03:07:32.710Z,5.14
2022-12-09T03:10:08.786Z,5.13
2022-12-09T03:12:43.322Z,5.14
2022-12-09T03:15:20.072Z,5.11
2022-12-09T03:17:54.081Z,5.11
2022-12-09T03:20:30.398Z,5.14
2022-12-09T03:23:06.000Z,5.11
2022-12-09T03:25:40.575Z,5.12
2022-12-09T03:28:17.099Z,5.06
2022-12-09T03:30:50.428Z,5.04
2022-12-09T03:33:24.334Z,5.04
2022-12-09T03:35:59.196Z,5.04
2022-12-09T03:38:36.135Z,5.02
2022-12-09T03:41:13.824Z,5.08
2022-12-09T03:43:52.331Z,5.06
2022-12-09T03:46:25.332Z,5.07
2022-12-09T03:48:58.541Z,5.09
2022-12-09T03:51:32.823Z,5.08
2022-12-09T03:54:09.915Z,5.02
2022-12-09T03:56:44.713Z,4.99
2022-12-09T03:59:17.424Z,5.01
2022-12-09T04:01:50.519Z,5.06
2022-12-09T04:04:23.577Z,5.07
2022-12-09T04:06:56.395Z,5.10
2022-12-09T04:09:30.764Z,5.07
2022-12-09T04:12:03.563Z,5.09
2022-12-09T04:14:36.478Z,5.09
2022-12-09T04:17:09.498Z,5.04
2022-12-09T04:19:42.623Z,5.10
2022-12-09T04:22:15.642Z,5.04
2022-12-09T04:24:49.756Z,4.95
2022-12-09T04:27:22.748Z,5.03
2022-12-09T04:29:55.473Z,5.01
2022-12-09T04:32:30.526Z,5.03
2022-12-09T04:35:03.246Z,5.03
2022-12-09T04:37:37.517Z,5.04
2022-12-09T04:40:15.599Z,5.03
2022-12-09T04:42:52.773Z,5.05
2022-12-09T04:45:25.707Z,5.02
2022-12-09T04:47:59.464Z,5.04
2022-12-09T04:50:32.445Z,4.98
2022-12-09T04:53:05.238Z,4.99
2022-12-09T04:55:39.529Z,4.98
2022-12-09T04:58:12.332Z,4.98
2022-12-09T05:00:45.468Z,5.00
2022-12-09T05:03:18.907Z,4.99
2022-12-09T05:05:53.368Z,4.93
2022-12-09T05:08:31.426Z,4.99
2022-12-09T05:11:06.520Z,4.95
2022-12-09T05:13:39.723Z,4.94
2022-12-09T05:16:16.438Z,4.95
2022-12-09T05:18:51.614Z,4.94
2022-12-09T05:21:24.789Z,4.94
2022-12-09T05:23:58.268Z,4.93
2022-12-09T05:26:32.297Z,4.95
2022-12-09T05:29:05.417Z,4.99
2022-12-09T05:31:38.446Z,4.93
2022-12-09T05:34:11.566Z,4.92
2022-12-09T05:36:44.985Z,4.90
2022-12-09T05:39:18.169Z,4.91
2022-12-09T05:41:52.345Z,4.93
2022-12-09T05:44:27.403Z,4.89
2022-12-09T05:47:00.247Z,4.90
2022-12-09T05:49:33.194Z,4.94
2022-12-09T05:52:06.260Z,4.92
2022-12-09T05:54:39.390Z,4.95
2022-12-09T05:57:13.752Z,4.95
2022-12-09T05:59:46.466Z,4.93
2022-12-09T06:02:19.631Z,4.91
2022-12-09T06:04:52.932Z,4.92
2022-12-09T06:07:26.068Z,4.99
2022-12-09T06:09:59.490Z,4.94
2022-12-09T06:12:33.970Z,4.92
2022-12-09T06:15:10.459Z,4.92
2022-12-09T06:17:43.991Z,4.92
2022-12-09T06:20:18.822Z,4.93
2022-12-09T06:22:51.912Z,4.94
2022-12-09T06:25:24.899Z,4.91
2022-12-09T06:27:59.606Z,4.94
2022-12-09T06:30:33.167Z,4.90
2022-12-09T06:33:22.881Z,4.95
2022-12-09T06:36:01.629Z,4.98
2022-12-09T06:38:35.263Z,4.94
2022-12-09T06:41:08.705Z,4.92
2022-12-09T06:43:43.473Z,4.91
2022-12-09T06:46:17.773Z,4.97
2022-12-09T06:48:51.199Z,4.94
2022-12-09T06:51:25.257Z,4.92
2022-12-09T06:53:58.839Z,4.93
2022-12-09T06:56:35.281Z,4.90
2022-12-09T06:59:10.788Z,4.89
2022-12-09T07:01:44.123Z,4.92
2022-12-09T07:04:17.813Z,4.95
2022-12-09T07:06:51.214Z,4.89
2022-12-09T07:09:24.642Z,4.91
2022-12-09T07:11:57.649Z,4.89
2022-12-09T07:14:31.981Z,4.87
2022-12-09T07:17:05.610Z,4.89
2022-12-09T07:19:38.779Z,4.92
2022-12-09T07:22:12.096Z,4.91
2022-12-09T07:24:45.206Z,4.93
2022-12-09T07:27:19.806Z,4.93
2022-12-09T07:29:54.794Z,4.90
2022-12-09T07:32:29.766Z,4.98
2022-12-09T07:35:03.016Z,4.94
2022-12-09T07:37:36.298Z,4.87
2022-12-09T07:40:09.847Z,4.88
2022-12-09T07:42:42.987Z,4.84
2022-12-09T07:45:18.361Z,4.80
2022-12-09T07:47:51.669Z,4.77
2022-12-09T07:50:25.319Z,4.79
2022-12-09T07:52:59.597Z,4.85
2022-12-09T07:56:04.788Z,5.37
2022-12-09T07:58:37.864Z,5.25
2022-12-09T08:01:12.103Z,5.26
2022-12-09T08:03:46.221Z,5.22
2022-12-09T08:06:22.038Z,5.43
2022-12-09T08:08:58.605Z,5.36
2022-12-09T08:11:34.392Z,5.35
2022-12-09T08:14:12.892Z,5.28
2022-12-09T08:16:46.421Z,5.33
2022-12-09T08:19:19.522Z,5.25
2022-12-09T08:21:54.813Z,5.24
2022-12-09T08:24:28.163Z,5.22
2022-12-09T08:27:02.667Z,5.22
2022-12-09T08:29:37.275Z,5.22
2022-12-09T08:32:10.628Z,5.25
2022-12-09T08:34:44.282Z,5.19
2022-12-09T08:37:18.174Z,5.16
2022-12-09T08:39:51.488Z,5.38
2022-12-09T08:42:26.126Z,5.37
2022-12-09T08:45:02.485Z,5.42
2022-12-09T08:47:36.306Z,5.42
2022-12-09T08:50:10.565Z,5.28
2022-12-09T08:52:44.363Z,5.41
2022-12-09T08:55:17.634Z,5.39
2022-12-09T08:57:52.094Z,5.25
2022-12-09T09:00:25.074Z,5.26
2022-12-09T09:02:58.193Z,5.35
2022-12-09T09:05:31.248Z,5.43
2022-12-09T09:08:04.896Z,5.37
2022-12-09T09:10:38.368Z,5.45
2022-12-09T09:13:16.375Z,5.48
2022-12-09T09:15:49.640Z,5.40
2022-12-09T09:18:22.510Z,5.45
2022-12-09T09:20:58.965Z,5.45
2022-12-09T09:23:32.659Z,5.45
2022-12-09T09:26:06.322Z,5.42
2022-12-09T09:28:40.636Z,5.45
2022-12-09T09:31:15.982Z,5.46
2022-12-09T09:33:49.904Z,5.50
2022-12-09T09:36:25.272Z,5.52
2022-12-09T09:38:59.532Z,5.47
2022-12-09T09:41:44.771Z,5.45
2022-12-09T09:44:28.837Z,5.54
2022-12-09T09:47:03.762Z,5.55
2022-12-09T09:49:43.024Z,5.43
2022-12-09T09:52:21.116Z,5.45
2022-12-09T09:54:54.853Z,5.46
2022-12-09T09:57:47.162Z,5.40
2022-12-09T10:00:26.702Z,5.50
2022-12-09T10:03:02.549Z,5.49
2022-12-09T10:05:40.251Z,5.57
2022-12-09T10:08:32.643Z,5.51
2022-12-09T10:11:18.916Z,5.60
2022-12-09T10:13:59.752Z,5.63
2022-12-09T10:16:40.580Z,5.55
2022-12-09T10:19:29.149Z,5.54
2022-12-09T10:22:12.910Z,5.62
2022-12-09T10:24:50.280Z,5.76
2022-12-09T10:27:31.283Z,5.66
2022-12-09T10:30:09.004Z,5.65
2022-12-09T10:32:44.089Z,5.69
2022-12-09T10:35:19.893Z,5.78
2022-12-09T10:37:57.063Z,5.77
2022-12-09T10:40:36.948Z,5.78
2022-12-09T10:43:39.025Z,5.81
2022-12-09T10:46:18.337Z,5.89
2022-12-09T10:48:58.804Z,5.83
2022-12-09T10:51:35.690Z,5.81
2022-12-09T10:54:21.960Z,5.86
2022-12-09T10:57:26.697Z,5.89
2022-12-09T11:00:03.264Z,5.87
2022-12-09T11:02:36.826Z,5.85
2022-12-09T11:05:26.565Z,5.83
2022-12-09T11:08:01.079Z,5.82
2022-12-09T11:10:34.598Z,5.85
2022-12-09T11:13:09.842Z,5.83
2022-12-09T11:15:46.156Z,5.97
2022-12-09T11:18:22.207Z,6.03
2022-12-09T11:20:59.252Z,5.98
2022-12-09T11:23:33.568Z,6.08
2022-12-09T11:26:22.365Z,6.10
2022-12-09T11:29:04.592Z,6.12
2022-12-09T11:31:41.045Z,6.14
2022-12-09T11:34:22.990Z,6.06
2022-12-09T11:37:02.521Z,6.05
2022-12-09T11:39:37.571Z,6.07
2022-12-09T11:42:19.427Z,6.13
2022-12-09T11:44:57.679Z,6.13
2022-12-09T11:47:57.183Z,6.15
2022-12-09T11:50:31.553Z,6.21
2022-12-09T11:53:25.623Z,6.29
2022-12-09T11:56:05.614Z,6.36
2022-12-09T11:58:45.053Z,6.47
2022-12-09T12:01:25.694Z,6.60
2022-12-09T12:04:01.987Z,6.70
2022-12-09T12:06:43.335Z,6.59
2022-12-09T12:09:23.674Z,6.63
2022-12-09T12:12:04.501Z,6.51
2022-12-09T12:14:39.639Z,6.54
2022-12-09T12:17:19.644Z,6.57
2022-12-09T12:19:56.366Z,6.57
2022-12-09T12:22:54.920Z,6.53
2022-12-09T12:25:41.067Z,6.46
2022-12-09T12:28:27.045Z,6.47
2022-12-09T12:31:07.023Z,6.48
2022-12-09T12:36:57.220Z,6.45
2022-12-09T12:39:46.361Z,6.49
2022-12-09T12:42:33.925Z,6.59
2022-12-09T12:45:39.202Z,6.56
2022-12-09T12:48:24.294Z,6.54
2022-12-09T12:51:08.616Z,6.69
2022-12-09T12:53:54.099Z,6.74
2022-12-09T12:56:35.901Z,6.69
2022-12-09T12:59:15.019Z,6.78
2022-12-09T13:01:54.326Z,6.95
2022-12-09T13:04:35.873Z,6.91
2022-12-09T13:07:16.542Z,6.92
2022-12-09T13:09:56.610Z,7.00
2022-12-09T13:12:50.715Z,7.09
2022-12-09T13:15:32.238Z,7.04
2022-12-09T13:18:08.617Z,7.04
2022-12-09T13:20:47.409Z,7.24
2022-12-09T13:23:33.116Z,7.33
2022-12-09T13:26:18.000Z,7.38
2022-12-09T13:29:03.563Z,7.41
2022-12-09T13:31:43.242Z,7.40
2022-12-09T13:34:27.917Z,7.31
2022-12-09T13:37:00.746Z,7.24
2022-12-09T13:39:57.064Z,7.16
2022-12-09T13:42:55.887Z,7.11
2022-12-09T13:45:34.291Z,7.03
2022-12-09T13:48:52.420Z,6.97
2022-12-09T13:51:27.413Z,6.87
2022-12-09T13:54:03.508Z,6.85
2022-12-09T13:56:38.207Z,6.86
2022-12-09T13:59:39.958Z,6.93
2022-12-09T14:02:30.001Z,6.88
2022-12-09T14:05:12.322Z,6.78
2022-12-09T14:07:50.385Z,6.81
2022-12-09T14:10:42.984Z,6.88
2022-12-09T14:13:24.185Z,6.91
2022-12-09T14:16:18.994Z,6.92
2022-12-09T14:18:52.825Z,6.93
2022-12-09T14:21:33.415Z,6.92
2022-12-09T14:24:32.693Z,6.85
2022-12-09T14:27:20.689Z,6.89
2022-12-09T14:29:57.256Z,6.88
2022-12-09T14:32:56.465Z,6.77
2022-12-09T14:35:44.161Z,6.77
2022-12-09T14:38:32.710Z,6.61
2022-12-09T14:41:18.616Z,6.64
2022-12-09T14:44:04.136Z,6.69
2022-12-09T14:46:39.133Z,6.64
2022-12-09T14:49:17.429Z,6.60
2022-12-09T14:51:52.859Z,6.59
2022-12-09T14:54:31.848Z,6.60
2022-12-09T14:57:21.664Z,6.54
2022-12-09T14:59:57.664Z,6.58
2022-12-09T15:02:32.368Z,6.44
2022-12-09T15:05:17.910Z,6.48
2022-12-09T15:07:52.948Z,6.44
2022-12-09T15:10:33.866Z,6.48
2022-12-09T15:13:10.228Z,6.43
2022-12-09T15:15:43.840Z,6.41
2022-12-09T15:18:21.846Z,6.36
2022-12-09T15:20:57.466Z,6.32
2022-12-09T15:23:33.487Z,6.31
2022-12-09T15:26:11.384Z,6.38
2022-12-09T15:28:55.007Z,6.28
2022-12-09T15:31:33.007Z,6.45
2022-12-09T15:34:16.550Z,6.34
2022-12-09T15:36:59.753Z,6.31
2022-12-09T15:39:39.922Z,6.32
2022-12-09T15:42:28.562Z,6.40
2022-12-09T15:45:19.206Z,6.38
2022-12-09T15:47:58.098Z,6.33
2022-12-09T15:50:39.825Z,6.35
2022-12-09T15:53:23.166Z,6.33
2022-12-09T15:56:03.911Z,6.24
2022-12-09T15:58:53.640Z,6.22
2022-12-09T16:01:36.172Z,6.23
2022-12-09T16:04:22.235Z,6.11
2022-12-09T16:07:06.012Z,6.08
2022-12-09T16:09:39.580Z,6.18
2022-12-09T16:12:25.969Z,6.13
2022-12-09T16:15:00.257Z,6.22
2022-12-09T16:17:36.683Z,6.07
2022-12-09T16:20:43.977Z,5.97
2022-12-09T16:23:22.890Z,6.09
2022-12-09T16:26:06.394Z,6.07
2022-12-09T16:28:40.710Z,6.00
2022-12-09T16:31:19.354Z,6.10
2022-12-09T16:33:52.848Z,5.95
2022-12-09T16:36:27.809Z,5.97
2022-12-09T16:39:43.115Z,5.96
2022-12-09T16:42:23.136Z,5.90
2022-12-09T16:45:21.228Z,5.86
2022-12-09T16:47:56.425Z,5.96
2022-12-09T16:50:31.860Z,5.93
2022-12-09T16:53:08.014Z,5.90
2022-12-09T16:55:49.445Z,5.94
2022-12-09T16:58:23.690Z,5.96
2022-12-09T17:00:57.482Z,5.92
2022-12-09T17:03:37.775Z,5.92
2022-12-09T17:06:15.476Z,5.92
2022-12-09T17:08:48.329Z,5.92
2022-12-09T17:11:21.891Z,5.92
2022-12-09T17:13:54.802Z,5.87
2022-12-09T17:16:27.836Z,5.88
2022-12-09T17:19:02.215Z,5.82
2022-12-09T17:21:35.071Z,5.93
2022-12-09T17:24:08.811Z,5.93
2022-12-09T17:26:41.733Z,5.92
2022-12-09T17:29:14.757Z,5.95
2022-12-09T17:31:49.748Z,5.78
2022-12-09T17:34:23.973Z,5.75
2022-12-09T17:36:57.095Z,5.73
2022-12-09T17:39:30.568Z,5.74
2022-12-09T17:42:03.302Z,5.72
2022-12-09T17:44:36.243Z,5.62
2022-12-09T17:47:09.735Z,5.62
2022-12-09T17:49:44.936Z,5.60
2022-12-09T17:52:17.819Z,5.68
2022-12-09T17:54:50.644Z,5.65
2022-12-09T17:57:23.730Z,5.69
2022-12-09T17:59:58.587Z,5.76
2022-12-09T18:02:31.436Z,5.67
2022-12-09T18:05:06.323Z,5.64
2022-12-09T18:07:39.394Z,5.56
2022-12-09T18:10:12.812Z,5.68
2022-12-09T18:12:47.119Z,5.72
2022-12-09T18:15:20.073Z,5.65
2022-12-09T18:17:55.548Z,5.67
2022-12-09T18:20:29.728Z,5.52
2022-12-09T18:23:05.315Z,5.49
2022-12-09T18:25:39.954Z,5.55
2022-12-09T18:28:12.773Z,5.58
2022-12-09T18:30:47.483Z,5.59
2022-12-09T18:33:33.354Z,5.43
2022-12-09T18:36:19.026Z,5.42
2022-12-09T18:38:52.376Z,5.39
2022-12-09T18:41:29.063Z,5.40
2022-12-09T18:44:05.644Z,5.34
2022-12-09T18:46:44.006Z,5.42
2022-12-09T18:49:24.835Z,5.42
2022-12-09T18:52:03.613Z,5.38
2022-12-09T18:54:40.011Z,5.34
2022-12-09T18:57:13.628Z,5.23
2022-12-09T18:59:50.359Z,5.21
2022-12-09T19:02:23.614Z,5.31
2022-12-09T19:04:57.069Z,5.28
2022-12-09T19:07:32.582Z,5.28
2022-12-09T19:10:08.153Z,5.32
2022-12-09T19:12:51.538Z,5.27
2022-12-09T19:15:28.453Z,5.20
2022-12-09T19:18:01.678Z,5.22
2022-12-09T19:20:34.877Z,5.14
2022-12-09T19:23:11.637Z,5.19
2022-12-09T19:25:45.106Z,5.24
2022-12-09T19:28:20.461Z,5.33
2022-12-09T19:30:56.133Z,5.25
2022-12-09T19:33:29.138Z,5.31
2022-12-09T19:36:03.910Z,5.27
2022-12-09T19:38:38.949Z,5.25
2022-12-09T19:41:12.035Z,5.20
2022-12-09T19:43:45.422Z,5.21
2022-12-09T19:46:18.541Z,5.24
2022-12-09T19:48:51.952Z,5.17
2022-12-09T19:51:29.114Z,5.19
2022-12-09T19:54:06.140Z,5.17
2022-12-09T19:56:39.848Z,5.11
2022-12-09T19:59:13.837Z,5.10
2022-12-09T20:01:47.259Z,5.18
2022-12-09T20:04:48.097Z,5.14
2022-12-09T20:07:17.352Z,5.19
2022-12-09T20:09:52.135Z,5.14
2022-12-09T20:12:25.444Z,5.14
2022-12-09T20:14:58.603Z,5.20
2022-12-09T20:17:32.301Z,5.18
2022-12-09T20:20:07.562Z,5.16
2022-12-09T20:22:40.843Z,5.23
2022-12-09T20:25:14.961Z,5.25
2022-12-09T20:27:48.661Z,5.24
2022-12-09T20:30:23.466Z,5.20
2022-12-09T20:32:56.584Z,5.11
2022-12-09T20:35:29.444Z,5.08
2022-12-09T20:38:02.986Z,5.08
2022-12-09T20:40:40.772Z,5.05
2022-12-09T20:43:17.393Z,5.01
2022-12-09T20:45:51.041Z,4.97
2022-12-09T20:48:27.132Z,5.05
2022-12-09T20:51:07.520Z,5.14
2022-12-09T20:53:43.880Z,5.17
2022-12-09T20:56:25.091Z,5.18
2022-12-09T20:59:03.385Z,5.14
2022-12-09T21:01:38.275Z,5.10
2022-12-09T21:04:11.471Z,5.18
2022-12-09T21:06:45.108Z,5.07
2022-12-09T21:09:23.401Z,5.12
2022-12-09T21:11:58.057Z,5.09
2022-12-09T21:14:33.299Z,5.05
2022-12-09T21:17:06.313Z,5.13
2022-12-09T21:19:39.462Z,5.16
2022-12-09T21:22:12.382Z,5.22
2022-12-09T21:24:45.762Z,5.19
2022-12-09T21:27:20.862Z,5.13
2022-12-09T21:29:53.875Z,5.15
2022-12-09T21:32:27.061Z,5.22
2022-12-09T21:35:02.174Z,5.12
2022-12-09T21:37:36.851Z,5.07
2022-12-09T21:40:11.328Z,5.04
2022-12-09T21:42:45.862Z,5.04
2022-12-09T21:45:19.112Z,5.08
2022-12-09T21:47:52.160Z,5.06
2022-12-09T21:50:25.386Z,5.05
2022-12-09T21:52:58.553Z,5.02
2022-12-09T21:55:34.395Z,5.12
2022-12-09T21:58:08.792Z,5.01
2022-12-09T22:00:43.524Z,4.99
2022-12-09T22:03:16.367Z,5.01
2022-12-09T22:05:51.545Z,4.98
2022-12-09T22:08:28.318Z,5.08
2022-12-09T22:11:02.614Z,5.01
2022-12-09T22:13:39.527Z,5.01
2022-12-09T22:16:16.905Z,5.07
2022-12-09T22:18:50.620Z,5.05
2022-12-09T22:21:26.339Z,5.13
2022-12-09T22:24:02.734Z,5.08
2022-12-09T22:26:35.704Z,5.03
2022-12-09T22:29:12.978Z,5.04
2022-12-09T22:31:47.521Z,5.07
2022-12-09T22:34:21.596Z,5.04
2022-12-09T22:36:55.328Z,5.01
2022-12-09T22:39:28.065Z,5.11
2022-12-09T22:42:00.821Z,5.02
2022-12-09T22:44:35.913Z,5.07
2022-12-09T22:47:09.578Z,5.04
2022-12-09T22:49:42.437Z,5.07
2022-12-09T22:52:15.274Z,5.10
2022-12-09T22:54:49.775Z,5.04
2022-12-09T22:57:22.712Z,5.08
2022-12-09T22:59:56.876Z,5.04
2022-12-09T23:02:30.048Z,5.10
2022-12-09T23:05:03.209Z,5.10
2022-12-09T23:07:36.837Z,5.12
2022-12-09T23:10:11.017Z,5.05
2022-12-09T23:12:43.942Z,4.98
2022-12-09T23:15:18.706Z,5.03
2022-12-09T23:17:51.722Z,4.98
2022-12-09T23:20:24.361Z,5.03
2022-12-09T23:22:57.552Z,4.93
2022-12-09T23:25:30.958Z,4.96
2022-12-09T23:28:04.445Z,4.95
2022-12-09T23:30:38.894Z,4.98
2022-12-09T23:33:11.722Z,5.01
2022-12-09T23:35:44.559Z,4.97
2022-12-09T23:38:17.362Z,4.97
2022-12-09T23:40:53.995Z,4.95
2022-12-09T23:43:27.227Z,4.98
2022-12-09T23:46:02.830Z,4.98
2022-12-09T23:48:36.383Z,4.94
2022-12-09T23:51:13.026Z,5.00
2022-12-09T23:53:47.831Z,4.97
2022-12-09T23:56:22.977Z,5.01
2022-12-09T23:58:59.110Z,4.95
